sensor_id;sensor_type;location;lat;lon;timestamp;pressure;altitude;pressure_sealevel;temperature;humidity
52693;BME280;68218;51.012;-1.648;2023-05-08T00:02:19;101110.69;;;12.26;85.35
52693;BME280;68218;51.012;-1.648;2023-05-08T00:04:44;101115.66;;;12.34;85.15
52693;BME280;68218;51.012;-1.648;2023-05-08T00:07:09;101114.53;;;12.30;85.25
52693;BME280;68218;51.012;-1.648;2023-05-08T00:09:36;101114.72;;;12.23;85.15
52693;BME280;68218;51.012;-1.648;2023-05-08T00:12:01;101094.47;;;12.04;85.50
52693;BME280;68218;51.012;-1.648;2023-05-08T00:14:27;101111.63;;;12.14;85.45
52693;BME280;68218;51.012;-1.648;2023-05-08T00:16:52;101111.94;;;12.18;85.98
52693;BME280;68218;51.012;-1.648;2023-05-08T00:19:18;101114.34;;;12.14;85.28
52693;BME280;68218;51.012;-1.648;2023-05-08T00:21:43;101109.47;;;12.16;85.95
52693;BME280;68218;51.012;-1.648;2023-05-08T00:24:09;101114.09;;;12.16;85.05
52693;BME280;68218;51.012;-1.648;2023-05-08T00:26:34;101104.41;;;11.98;86.10
52693;BME280;68218;51.012;-1.648;2023-05-08T00:28:59;101110.69;;;12.04;86.18
52693;BME280;68218;51.012;-1.648;2023-05-08T00:31:25;101105.53;;;12.02;85.99
52693;BME280;68218;51.012;-1.648;2023-05-08T00:33:50;101102.19;;;11.95;85.92
52693;BME280;68218;51.012;-1.648;2023-05-08T00:36:16;101100.69;;;12.04;85.97
52693;BME280;68218;51.012;-1.648;2023-05-08T00:38:41;101109.94;;;12.08;84.92
52693;BME280;68218;51.012;-1.648;2023-05-08T00:41:07;101101.88;;;11.91;86.67
52693;BME280;68218;51.012;-1.648;2023-05-08T00:43:32;101101.53;;;12.05;85.61
52693;BME280;68218;51.012;-1.648;2023-05-08T00:45:59;101108.56;;;11.89;85.16
52693;BME280;68218;51.012;-1.648;2023-05-08T00:48:31;101094.00;;;11.90;85.46
52693;BME280;68218;51.012;-1.648;2023-05-08T00:50:59;101092.91;;;11.69;87.94
52693;BME280;68218;51.012;-1.648;2023-05-08T00:53:27;101090.72;;;12.05;86.23
52693;BME280;68218;51.012;-1.648;2023-05-08T00:55:55;101094.41;;;12.21;86.18
52693;BME280;68218;51.012;-1.648;2023-05-08T00:58:21;101091.69;;;11.98;87.70
52693;BME280;68218;51.012;-1.648;2023-05-08T01:00:49;101083.66;;;12.04;88.05
52693;BME280;68218;51.012;-1.648;2023-05-08T01:03:15;101087.72;;;12.06;88.66
52693;BME280;68218;51.012;-1.648;2023-05-08T01:05:42;101073.88;;;12.25;87.41
52693;BME280;68218;51.012;-1.648;2023-05-08T01:08:07;101085.31;;;11.88;88.50
52693;BME280;68218;51.012;-1.648;2023-05-08T01:10:47;101093.78;;;12.35;87.47
52693;BME280;68218;51.012;-1.648;2023-05-08T01:13:44;101081.94;;;12.69;85.75
52693;BME280;68218;51.012;-1.648;2023-05-08T01:19:00;101079.75;;;12.66;85.17
52693;BME280;68218;51.012;-1.648;2023-05-08T01:21:30;101078.06;;;12.87;84.93
52693;BME280;68218;51.012;-1.648;2023-05-08T01:26:46;101074.22;;;13.15;83.80
52693;BME280;68218;51.012;-1.648;2023-05-08T01:35:26;101079.00;;;10.92;95.52
52693;BME280;68218;51.012;-1.648;2023-05-08T01:38:09;101085.19;;;10.76;97.05
52693;BME280;68218;51.012;-1.648;2023-05-08T01:40:43;101082.50;;;10.76;97.33
52693;BME280;68218;51.012;-1.648;2023-05-08T01:43:28;101078.81;;;10.65;97.99
52693;BME280;68218;51.012;-1.648;2023-05-08T01:45:55;101082.88;;;10.67;98.08
52693;BME280;68218;51.012;-1.648;2023-05-08T01:48:32;101080.97;;;10.80;98.46
52693;BME280;68218;51.012;-1.648;2023-05-08T01:51:04;101078.66;;;10.72;98.64
52693;BME280;68218;51.012;-1.648;2023-05-08T01:53:40;101079.44;;;10.55;98.39
52693;BME280;68218;51.012;-1.648;2023-05-08T01:56:12;101083.16;;;10.66;98.95
52693;BME280;68218;51.012;-1.648;2023-05-08T01:58:42;101076.53;;;10.74;98.72
52693;BME280;68218;51.012;-1.648;2023-05-08T02:01:09;101070.81;;;10.70;98.44
52693;BME280;68218;51.012;-1.648;2023-05-08T02:03:36;101070.97;;;10.80;98.44
52693;BME280;68218;51.012;-1.648;2023-05-08T02:06:04;101073.25;;;10.72;98.90
52693;BME280;68218;51.012;-1.648;2023-05-08T02:08:32;101077.50;;;10.67;98.70
52693;BME280;68218;51.012;-1.648;2023-05-08T02:10:59;101073.75;;;10.68;98.61
52693;BME280;68218;51.012;-1.648;2023-05-08T02:13:26;101070.94;;;10.63;98.92
52693;BME280;68218;51.012;-1.648;2023-05-08T02:15:55;101068.34;;;10.68;98.95
52693;BME280;68218;51.012;-1.648;2023-05-08T02:18:23;101066.13;;;10.65;99.21
52693;BME280;68218;51.012;-1.648;2023-05-08T02:20:51;101064.75;;;10.63;99.30
52693;BME280;68218;51.012;-1.648;2023-05-08T02:23:19;101079.13;;;10.68;99.27
52693;BME280;68218;51.012;-1.648;2023-05-08T02:25:46;101072.94;;;10.68;99.39
52693;BME280;68218;51.012;-1.648;2023-05-08T02:28:14;101069.91;;;10.64;98.64
52693;BME280;68218;51.012;-1.648;2023-05-08T02:30:41;101064.91;;;10.56;99.22
52693;BME280;68218;51.012;-1.648;2023-05-08T02:33:09;101078.00;;;10.64;99.75
52693;BME280;68218;51.012;-1.648;2023-05-08T02:35:36;101062.47;;;10.72;100.00
52693;BME280;68218;51.012;-1.648;2023-05-08T02:38:04;101048.31;;;10.64;99.26
52693;BME280;68218;51.012;-1.648;2023-05-08T02:40:36;101038.75;;;10.74;99.45
52693;BME280;68218;51.012;-1.648;2023-05-08T02:43:04;101062.81;;;10.92;99.16
52693;BME280;68218;51.012;-1.648;2023-05-08T02:45:38;101057.59;;;10.85;98.69
52693;BME280;68218;51.012;-1.648;2023-05-08T02:48:12;101051.53;;;10.95;99.31
52693;BME280;68218;51.012;-1.648;2023-05-08T02:53:11;101040.16;;;10.76;98.46
52693;BME280;68218;51.012;-1.648;2023-05-08T02:55:48;101043.19;;;10.80;99.09
52693;BME280;68218;51.012;-1.648;2023-05-08T03:01:01;101052.91;;;10.81;99.20
52693;BME280;68218;51.012;-1.648;2023-05-08T03:03:32;101051.22;;;10.92;99.63
52693;BME280;68218;51.012;-1.648;2023-05-08T03:06:01;101049.66;;;10.96;99.53
52693;BME280;68218;51.012;-1.648;2023-05-08T03:08:33;101051.03;;;10.98;99.98
52693;BME280;68218;51.012;-1.648;2023-05-08T03:11:03;101041.56;;;10.96;99.75
52693;BME280;68218;51.012;-1.648;2023-05-08T03:13:31;101050.22;;;10.98;99.98
52693;BME280;68218;51.012;-1.648;2023-05-08T03:16:00;101049.41;;;10.97;99.79
52693;BME280;68218;51.012;-1.648;2023-05-08T03:18:48;101056.59;;;11.09;99.37
52693;BME280;68218;51.012;-1.648;2023-05-08T03:21:17;101048.00;;;11.12;99.49
52693;BME280;68218;51.012;-1.648;2023-05-08T03:23:45;101048.84;;;10.95;100.00
52693;BME280;68218;51.012;-1.648;2023-05-08T03:26:16;101051.13;;;11.03;99.89
52693;BME280;68218;51.012;-1.648;2023-05-08T03:28:49;101045.56;;;10.93;99.84
52693;BME280;68218;51.012;-1.648;2023-05-08T03:31:16;101045.56;;;10.93;100.00
52693;BME280;68218;51.012;-1.648;2023-05-08T03:33:49;101041.72;;;10.89;99.72
52693;BME280;68218;51.012;-1.648;2023-05-08T03:36:16;101020.13;;;10.72;99.99
52693;BME280;68218;51.012;-1.648;2023-05-08T03:38:42;101048.25;;;10.93;99.55
52693;BME280;68218;51.012;-1.648;2023-05-08T03:41:08;101034.66;;;10.88;99.47
52693;BME280;68218;51.012;-1.648;2023-05-08T03:43:36;101049.25;;;10.87;99.45
52693;BME280;68218;51.012;-1.648;2023-05-08T03:46:04;101041.06;;;10.99;100.00
52693;BME280;68218;51.012;-1.648;2023-05-08T03:48:35;101041.72;;;10.89;100.00
52693;BME280;68218;51.012;-1.648;2023-05-08T03:51:04;101051.47;;;10.90;100.00
52693;BME280;68218;51.012;-1.648;2023-05-08T03:53:30;101045.31;;;10.95;100.00
52693;BME280;68218;51.012;-1.648;2023-05-08T03:55:57;101040.66;;;10.90;100.00
52693;BME280;68218;51.012;-1.648;2023-05-08T03:58:37;101037.13;;;11.06;100.00
52693;BME280;68218;51.012;-1.648;2023-05-08T04:01:24;101031.81;;;11.12;99.79
52693;BME280;68218;51.012;-1.648;2023-05-08T04:07:05;101034.09;;;11.20;98.94
52693;BME280;68218;51.012;-1.648;2023-05-08T04:10:11;101030.59;;;11.02;99.57
52693;BME280;68218;51.012;-1.648;2023-05-08T04:15:33;101041.63;;;11.18;99.62
52693;BME280;68218;51.012;-1.648;2023-05-08T04:18:07;101041.06;;;11.16;99.61
52693;BME280;68218;51.012;-1.648;2023-05-08T04:20:34;101032.81;;;11.05;99.64
52693;BME280;68218;51.012;-1.648;2023-05-08T04:23:03;101032.66;;;10.95;100.00
52693;BME280;68218;51.012;-1.648;2023-05-08T04:25:31;101026.81;;;11.03;100.00
52693;BME280;68218;51.012;-1.648;2023-05-08T04:27:58;101033.38;;;10.91;100.00
52693;BME280;68218;51.012;-1.648;2023-05-08T04:30:24;101031.25;;;10.93;100.00
52693;BME280;68218;51.012;-1.648;2023-05-08T04:32:51;101033.53;;;10.84;100.00
52693;BME280;68218;51.012;-1.648;2023-05-08T04:35:16;101037.97;;;11.07;100.00
52693;BME280;68218;51.012;-1.648;2023-05-08T04:37:42;101036.31;;;11.06;100.00
52693;BME280;68218;51.012;-1.648;2023-05-08T04:40:08;101031.25;;;10.93;100.00
52693;BME280;68218;51.012;-1.648;2023-05-08T04:42:34;101042.03;;;11.10;100.00
52693;BME280;68218;51.012;-1.648;2023-05-08T04:45:01;101043.94;;;11.09;100.00
52693;BME280;68218;51.012;-1.648;2023-05-08T04:47:26;101045.88;;;11.14;100.00
52693;BME280;68218;51.012;-1.648;2023-05-08T04:49:52;101028.63;;;10.98;100.00
52693;BME280;68218;51.012;-1.648;2023-05-08T04:52:17;101044.75;;;11.10;100.00
52693;BME280;68218;51.012;-1.648;2023-05-08T04:54:43;101051.28;;;11.14;100.00
52693;BME280;68218;51.012;-1.648;2023-05-08T04:57:08;101047.13;;;11.23;100.00
52693;BME280;68218;51.012;-1.648;2023-05-08T04:59:33;101049.91;;;11.11;100.00
52693;BME280;68218;51.012;-1.648;2023-05-08T05:01:59;101056.34;;;11.27;100.00
52693;BME280;68218;51.012;-1.648;2023-05-08T05:04:27;101061.25;;;11.30;100.00
52693;BME280;68218;51.012;-1.648;2023-05-08T05:06:53;101058.56;;;11.30;100.00
52693;BME280;68218;51.012;-1.648;2023-05-08T05:09:19;101060.53;;;11.35;100.00
52693;BME280;68218;51.012;-1.648;2023-05-08T05:11:44;101065.84;;;11.30;100.00
52693;BME280;68218;51.012;-1.648;2023-05-08T05:14:10;101068.88;;;11.33;100.00
52693;BME280;68218;51.012;-1.648;2023-05-08T05:16:35;101070.47;;;11.51;100.00
52693;BME280;68218;51.012;-1.648;2023-05-08T05:19:01;101065.25;;;11.44;99.81
52693;BME280;68218;51.012;-1.648;2023-05-08T05:21:26;101066.47;;;11.54;99.91
52693;BME280;68218;51.012;-1.648;2023-05-08T05:23:52;101069.59;;;11.46;99.44
52693;BME280;68218;51.012;-1.648;2023-05-08T05:26:18;101066.06;;;11.62;99.77
52693;BME280;68218;51.012;-1.648;2023-05-08T05:28:43;101059.84;;;11.44;99.41
52693;BME280;68218;51.012;-1.648;2023-05-08T05:31:09;101057.88;;;11.57;99.56
52693;BME280;68218;51.012;-1.648;2023-05-08T05:33:34;101059.38;;;11.70;99.52
52693;BME280;68218;51.012;-1.648;2023-05-08T05:36:00;101047.88;;;11.57;98.64
52693;BME280;68218;51.012;-1.648;2023-05-08T05:38:25;101059.75;;;11.39;99.17
52693;BME280;68218;51.012;-1.648;2023-05-08T05:40:51;101064.81;;;11.53;99.53
52693;BME280;68218;51.012;-1.648;2023-05-08T05:43:16;101063.09;;;11.64;99.14
52693;BME280;68218;51.012;-1.648;2023-05-08T05:45:42;101060.72;;;11.67;99.01
52693;BME280;68218;51.012;-1.648;2023-05-08T05:48:07;101067.00;;;11.73;98.24
52693;BME280;68218;51.012;-1.648;2023-05-08T05:50:33;101058.44;;;11.59;97.95
52693;BME280;68218;51.012;-1.648;2023-05-08T05:52:58;101061.47;;;11.62;98.81
52693;BME280;68218;51.012;-1.648;2023-05-08T05:55:24;101061.91;;;11.76;98.47
52693;BME280;68218;51.012;-1.648;2023-05-08T05:57:49;101063.63;;;11.83;98.70
52693;BME280;68218;51.012;-1.648;2023-05-08T06:00:15;101055.00;;;11.86;97.97
52693;BME280;68218;51.012;-1.648;2023-05-08T06:02:41;101067.31;;;11.76;97.98
52693;BME280;68218;51.012;-1.648;2023-05-08T06:05:08;101059.78;;;11.78;98.55
52693;BME280;68218;51.012;-1.648;2023-05-08T06:07:34;101057.31;;;11.77;97.92
52693;BME280;68218;51.012;-1.648;2023-05-08T06:10:00;101056.00;;;11.79;98.13
52693;BME280;68218;51.012;-1.648;2023-05-08T06:12:25;101057.00;;;11.73;98.20
52693;BME280;68218;51.012;-1.648;2023-05-08T06:14:53;101055.47;;;11.77;98.14
52693;BME280;68218;51.012;-1.648;2023-05-08T06:17:18;101056.69;;;11.70;97.77
52693;BME280;68218;51.012;-1.648;2023-05-08T06:19:44;101059.28;;;11.81;97.91
52693;BME280;68218;51.012;-1.648;2023-05-08T06:22:17;101051.97;;;11.82;97.39
52693;BME280;68218;51.012;-1.648;2023-05-08T06:24:43;101048.47;;;11.81;97.14
52693;BME280;68218;51.012;-1.648;2023-05-08T06:27:09;101045.69;;;11.93;97.56
52693;BME280;68218;51.012;-1.648;2023-05-08T06:29:34;101050.19;;;11.88;98.04
52693;BME280;68218;51.012;-1.648;2023-05-08T06:32:00;101055.59;;;11.88;97.83
52693;BME280;68218;51.012;-1.648;2023-05-08T06:34:25;101054.63;;;11.77;97.33
52693;BME280;68218;51.012;-1.648;2023-05-08T06:36:51;101046.19;;;11.73;98.49
52693;BME280;68218;51.012;-1.648;2023-05-08T06:39:16;101055.78;;;11.81;97.91
52693;BME280;68218;51.012;-1.648;2023-05-08T06:41:42;101051.84;;;11.72;97.72
52693;BME280;68218;51.012;-1.648;2023-05-08T06:44:10;101054.00;;;11.70;97.93
52693;BME280;68218;51.012;-1.648;2023-05-08T06:46:36;101050.75;;;11.90;98.25
52693;BME280;68218;51.012;-1.648;2023-05-08T06:49:01;101048.13;;;11.95;97.64
52693;BME280;68218;51.012;-1.648;2023-05-08T06:51:27;101035.03;;;11.87;98.58
52693;BME280;68218;51.012;-1.648;2023-05-08T06:53:52;101047.63;;;11.98;97.87
52693;BME280;68218;51.012;-1.648;2023-05-08T06:56:18;101047.88;;;11.96;98.47
52693;BME280;68218;51.012;-1.648;2023-05-08T06:58:43;101044.94;;;11.98;98.98
52693;BME280;68218;51.012;-1.648;2023-05-08T07:01:08;101046.81;;;11.97;98.88
52693;BME280;68218;51.012;-1.648;2023-05-08T07:03:34;101046.25;;;11.95;99.52
52693;BME280;68218;51.012;-1.648;2023-05-08T07:05:59;101041.44;;;12.03;99.18
52693;BME280;68218;51.012;-1.648;2023-05-08T07:08:25;101039.47;;;11.93;99.32
52693;BME280;68218;51.012;-1.648;2023-05-08T07:10:50;101054.44;;;11.84;99.16
52693;BME280;68218;51.012;-1.648;2023-05-08T07:13:16;101048.69;;;11.97;100.00
52693;BME280;68218;51.012;-1.648;2023-05-08T07:15:45;101037.81;;;11.92;100.00
52693;BME280;68218;51.012;-1.648;2023-05-08T07:18:11;101046.66;;;12.09;99.59
52693;BME280;68218;51.012;-1.648;2023-05-08T07:20:36;101057.53;;;12.14;99.70
52693;BME280;68218;51.012;-1.648;2023-05-08T07:23:01;101046.56;;;11.99;100.00
52693;BME280;68218;51.012;-1.648;2023-05-08T07:25:27;101054.28;;;12.12;100.00
52693;BME280;68218;51.012;-1.648;2023-05-08T07:27:52;101050.53;;;12.13;100.00
52693;BME280;68218;51.012;-1.648;2023-05-08T07:30:18;101049.63;;;12.08;100.00
52693;BME280;68218;51.012;-1.648;2023-05-08T07:32:43;101049.63;;;12.08;100.00
52693;BME280;68218;51.012;-1.648;2023-05-08T07:35:09;101053.09;;;12.03;100.00
52693;BME280;68218;51.012;-1.648;2023-05-08T07:37:36;101045.34;;;11.90;100.00
52693;BME280;68218;51.012;-1.648;2023-05-08T07:40:01;101049.94;;;11.89;100.00
52693;BME280;68218;51.012;-1.648;2023-05-08T07:42:27;101045.34;;;11.90;100.00
52693;BME280;68218;51.012;-1.648;2023-05-08T07:44:53;101048.63;;;11.92;100.00
52693;BME280;68218;51.012;-1.648;2023-05-08T07:47:18;101046.56;;;11.99;100.00
52693;BME280;68218;51.012;-1.648;2023-05-08T07:49:44;101053.78;;;12.15;100.00
52693;BME280;68218;51.012;-1.648;2023-05-08T07:52:09;101037.63;;;12.21;100.00
52693;BME280;68218;51.012;-1.648;2023-05-08T07:54:34;101049.63;;;12.08;100.00
52693;BME280;68218;51.012;-1.648;2023-05-08T07:57:00;101045.84;;;11.87;100.00
52693;BME280;68218;51.012;-1.648;2023-05-08T07:59:25;101047.63;;;11.98;100.00
52693;BME280;68218;51.012;-1.648;2023-05-08T08:01:50;101040.91;;;12.01;100.00
52693;BME280;68218;51.012;-1.648;2023-05-08T08:04:16;101046.31;;;12.01;100.00
52693;BME280;68218;51.012;-1.648;2023-05-08T08:06:42;101039.06;;;12.06;100.00
52693;BME280;68218;51.012;-1.648;2023-05-08T08:09:07;101048.44;;;12.21;100.00
52693;BME280;68218;51.012;-1.648;2023-05-08T08:11:33;101048.75;;;12.02;100.00
52693;BME280;68218;51.012;-1.648;2023-05-08T08:13:58;101049.31;;;12.04;100.00
52693;BME280;68218;51.012;-1.648;2023-05-08T08:16:23;101038.25;;;12.06;100.00
52693;BME280;68218;51.012;-1.648;2023-05-08T08:18:49;101047.09;;;12.01;100.00
52693;BME280;68218;51.012;-1.648;2023-05-08T08:21:17;101042.22;;;11.98;100.00
52693;BME280;68218;51.012;-1.648;2023-05-08T08:23:42;101046.84;;;12.03;100.00
52693;BME280;68218;51.012;-1.648;2023-05-08T08:26:08;101043.84;;;11.99;100.00
52693;BME280;68218;51.012;-1.648;2023-05-08T08:28:33;101041.47;;;11.86;100.00
52693;BME280;68218;51.012;-1.648;2023-05-08T08:30:59;101045.28;;;11.85;100.00
52693;BME280;68218;51.012;-1.648;2023-05-08T08:33:26;101049.59;;;11.86;100.00
52693;BME280;68218;51.012;-1.648;2023-05-08T08:35:52;101047.81;;;11.91;100.00
52693;BME280;68218;51.012;-1.648;2023-05-08T08:38:18;101041.47;;;11.86;100.00
52693;BME280;68218;51.012;-1.648;2023-05-08T08:40:43;101044.34;;;11.74;100.00
52693;BME280;68218;51.012;-1.648;2023-05-08T08:43:09;101046.50;;;11.77;100.00
52693;BME280;68218;51.012;-1.648;2023-05-08T08:45:35;101046.31;;;11.84;100.00
52693;BME280;68218;51.012;-1.648;2023-05-08T08:48:02;101051.91;;;11.77;100.00
52693;BME280;68218;51.012;-1.648;2023-05-08T08:50:30;101049.03;;;11.84;100.00
52693;BME280;68218;51.012;-1.648;2023-05-08T08:53:10;101050.75;;;11.90;100.00
52693;BME280;68218;51.012;-1.648;2023-05-08T08:55:39;101049.09;;;11.89;100.00
52693;BME280;68218;51.012;-1.648;2023-05-08T08:58:25;101056.63;;;12.04;100.00
52693;BME280;68218;51.012;-1.648;2023-05-08T09:00:52;101055.28;;;12.06;100.00
52693;BME280;68218;51.012;-1.648;2023-05-08T09:03:19;101047.63;;;11.98;100.00
52693;BME280;68218;51.012;-1.648;2023-05-08T09:05:45;101046.00;;;11.97;100.00
52693;BME280;68218;51.012;-1.648;2023-05-08T09:08:13;101049.06;;;12.06;100.00
52693;BME280;68218;51.012;-1.648;2023-05-08T09:10:39;101035.50;;;12.01;100.00
52693;BME280;68218;51.012;-1.648;2023-05-08T09:13:05;101025.94;;;11.93;100.00
52693;BME280;68218;51.012;-1.648;2023-05-08T09:15:31;101026.69;;;12.10;100.00
52693;BME280;68218;51.012;-1.648;2023-05-08T09:17:57;101024.91;;;12.21;100.00
52693;BME280;68218;51.012;-1.648;2023-05-08T09:20:23;101015.88;;;12.10;100.00
52693;BME280;68218;51.012;-1.648;2023-05-08T09:22:50;101019.56;;;12.04;100.00
52693;BME280;68218;51.012;-1.648;2023-05-08T09:25:16;101024.34;;;12.46;100.00
52693;BME280;68218;51.012;-1.648;2023-05-08T09:27:43;101002.34;;;12.65;100.00
52693;BME280;68218;51.012;-1.648;2023-05-08T09:30:10;100999.06;;;12.63;100.00
52693;BME280;68218;51.012;-1.648;2023-05-08T09:32:38;100992.75;;;12.52;100.00
52693;BME280;68218;51.012;-1.648;2023-05-08T09:35:04;100990.75;;;12.42;100.00
52693;BME280;68218;51.012;-1.648;2023-05-08T09:37:31;101001.56;;;12.42;99.44
52693;BME280;68218;51.012;-1.648;2023-05-08T09:40:20;101004.63;;;12.46;99.25
52693;BME280;68218;51.012;-1.648;2023-05-08T09:42:47;100999.34;;;12.34;100.00
52693;BME280;68218;51.012;-1.648;2023-05-08T09:45:30;100995.16;;;12.48;98.75
52693;BME280;68218;51.012;-1.648;2023-05-08T09:47:55;101000.25;;;12.72;100.00
52693;BME280;68218;51.012;-1.648;2023-05-08T09:50:21;100997.44;;;12.94;99.85
52693;BME280;68218;51.012;-1.648;2023-05-08T09:52:47;100996.72;;;13.09;98.23
52693;BME280;68218;51.012;-1.648;2023-05-08T09:55:15;100995.44;;;13.22;100.00
52693;BME280;68218;51.012;-1.648;2023-05-08T09:57:55;100994.81;;;13.04;98.19
52693;BME280;68218;51.012;-1.648;2023-05-08T10:00:22;100997.44;;;12.62;97.02
52693;BME280;68218;51.012;-1.648;2023-05-08T10:02:59;100999.06;;;12.63;98.23
52693;BME280;68218;51.012;-1.648;2023-05-08T10:05:30;101001.53;;;13.02;100.00
52693;BME280;68218;51.012;-1.648;2023-05-08T10:10:44;101004.88;;;12.44;97.07
52693;BME280;68218;51.012;-1.648;2023-05-08T10:13:10;100988.06;;;12.74;98.76
52693;BME280;68218;51.012;-1.648;2023-05-08T10:15:37;100994.94;;;12.55;95.70
52693;BME280;68218;51.012;-1.648;2023-05-08T10:18:06;100994.41;;;12.53;98.12
52693;BME280;68218;51.012;-1.648;2023-05-08T10:20:34;100988.63;;;12.44;98.17
52693;BME280;68218;51.012;-1.648;2023-05-08T10:23:01;100993.56;;;12.52;97.88
52693;BME280;68218;51.012;-1.648;2023-05-08T10:25:33;100995.94;;;12.76;100.00
52693;BME280;68218;51.012;-1.648;2023-05-08T10:30:49;100992.06;;;13.37;100.00
52693;BME280;68218;51.012;-1.648;2023-05-08T10:33:18;100999.47;;;13.19;95.44
52693;BME280;68218;51.012;-1.648;2023-05-08T10:35:44;100999.97;;;13.06;94.68
52693;BME280;68218;51.012;-1.648;2023-05-08T10:38:11;100991.06;;;13.16;95.33
52693;BME280;68218;51.012;-1.648;2023-05-08T10:40:36;100987.66;;;12.93;95.42
52693;BME280;68218;51.012;-1.648;2023-05-08T10:43:02;100995.88;;;12.71;96.96
52693;BME280;68218;51.012;-1.648;2023-05-08T10:45:30;100992.34;;;12.65;97.32
52693;BME280;68218;51.012;-1.648;2023-05-08T10:53:43;100994.13;;;12.54;96.82
52693;BME280;68218;51.012;-1.648;2023-05-08T10:56:10;100988.09;;;12.47;98.62
52693;BME280;68218;51.012;-1.648;2023-05-08T10:58:36;100993.75;;;12.41;97.82
52693;BME280;68218;51.012;-1.648;2023-05-08T11:03:42;100995.16;;;12.48;99.05
52693;BME280;68218;51.012;-1.648;2023-05-08T11:06:07;100993.22;;;12.44;98.59
52693;BME280;68218;51.012;-1.648;2023-05-08T11:08:43;100988.81;;;12.65;100.00
52693;BME280;68218;51.012;-1.648;2023-05-08T11:11:18;100985.78;;;12.56;98.72
52693;BME280;68218;51.012;-1.648;2023-05-08T11:14:09;100989.50;;;12.23;98.06
52693;BME280;68218;51.012;-1.648;2023-05-08T11:19:24;100999.50;;;12.49;99.93
52693;BME280;68218;51.012;-1.648;2023-05-08T11:22:12;101010.22;;;12.39;99.98
52693;BME280;68218;51.012;-1.648;2023-05-08T11:24:40;101002.88;;;12.34;99.79
52693;BME280;68218;51.012;-1.648;2023-05-08T11:27:11;100991.75;;;12.31;98.55
52693;BME280;68218;51.012;-1.648;2023-05-08T11:29:36;100981.53;;;12.38;99.88
52693;BME280;68218;51.012;-1.648;2023-05-08T11:32:03;100980.78;;;12.15;98.81
52693;BME280;68218;51.012;-1.648;2023-05-08T11:37:21;100998.31;;;12.13;99.09
52693;BME280;68218;51.012;-1.648;2023-05-08T11:39:47;101012.03;;;12.06;99.33
52693;BME280;68218;51.012;-1.648;2023-05-08T11:47:36;100994.28;;;12.15;100.00
52693;BME280;68218;51.012;-1.648;2023-05-08T11:50:02;100979.28;;;12.30;100.00
52693;BME280;68218;51.012;-1.648;2023-05-08T11:52:30;100975.97;;;12.50;100.00
52693;BME280;68218;51.012;-1.648;2023-05-08T11:54:56;100971.97;;;12.25;99.05
52693;BME280;68218;51.012;-1.648;2023-05-08T11:57:25;100961.91;;;12.21;100.00
52693;BME280;68218;51.012;-1.648;2023-05-08T11:59:51;100961.13;;;12.25;99.80
52693;BME280;68218;51.012;-1.648;2023-05-08T12:02:16;100967.19;;;12.38;100.00
52693;BME280;68218;51.012;-1.648;2023-05-08T12:04:43;100971.56;;;12.44;98.89
52693;BME280;68218;51.012;-1.648;2023-05-08T12:07:09;100970.34;;;12.57;99.32
52693;BME280;68218;51.012;-1.648;2023-05-08T12:09:36;100970.47;;;12.40;99.67
52693;BME280;68218;51.012;-1.648;2023-05-08T12:12:02;100964.88;;;12.51;99.72
52693;BME280;68218;51.012;-1.648;2023-05-08T12:14:28;100958.16;;;12.59;98.85
52693;BME280;68218;51.012;-1.648;2023-05-08T12:16:53;100958.63;;;12.83;100.00
52693;BME280;68218;51.012;-1.648;2023-05-08T12:19:18;100957.06;;;12.87;99.36
52693;BME280;68218;51.012;-1.648;2023-05-08T12:21:47;100938.28;;;12.43;98.81
52693;BME280;68218;51.012;-1.648;2023-05-08T12:24:14;100959.09;;;12.70;98.82
52693;BME280;68218;51.012;-1.648;2023-05-08T12:26:41;100958.50;;;12.68;100.00
52693;BME280;68218;51.012;-1.648;2023-05-08T12:29:06;100956.53;;;12.90;99.19
52693;BME280;68218;51.012;-1.648;2023-05-08T12:31:36;100941.88;;;12.86;97.57
52693;BME280;68218;51.012;-1.648;2023-05-08T12:34:02;100937.00;;;12.88;98.32
52693;BME280;68218;51.012;-1.648;2023-05-08T12:36:33;100928.13;;;12.98;98.04
52693;BME280;68218;51.012;-1.648;2023-05-08T12:39:15;100925.75;;;13.07;98.45
52693;BME280;68218;51.012;-1.648;2023-05-08T12:41:50;100919.81;;;13.10;97.26
52693;BME280;68218;51.012;-1.648;2023-05-08T12:44:23;100933.53;;;12.93;97.78
52693;BME280;68218;51.012;-1.648;2023-05-08T12:46:54;100930.72;;;12.78;98.62
52693;BME280;68218;51.012;-1.648;2023-05-08T12:49:27;100928.34;;;12.86;99.87
52693;BME280;68218;51.012;-1.648;2023-05-08T12:52:07;100922.41;;;12.89;99.73
52693;BME280;68218;51.012;-1.648;2023-05-08T12:54:38;100923.25;;;12.58;100.00
52693;BME280;68218;51.012;-1.648;2023-05-08T12:57:11;100932.41;;;12.84;100.00
52693;BME280;68218;51.012;-1.648;2023-05-08T12:59:38;100948.16;;;12.92;100.00
52693;BME280;68218;51.012;-1.648;2023-05-08T13:02:03;100939.00;;;12.66;100.00
52693;BME280;68218;51.012;-1.648;2023-05-08T13:04:28;100920.03;;;12.61;100.00
52693;BME280;68218;51.012;-1.648;2023-05-08T13:06:55;100899.78;;;12.63;100.00
52693;BME280;68218;51.012;-1.648;2023-05-08T13:09:20;100908.22;;;12.72;100.00
52693;BME280;68218;51.012;-1.648;2023-05-08T13:11:47;100912.28;;;12.74;100.00
52693;BME280;68218;51.012;-1.648;2023-05-08T13:14:13;100919.13;;;12.82;100.00
52693;BME280;68218;51.012;-1.648;2023-05-08T13:16:45;100912.25;;;12.69;100.00
52693;BME280;68218;51.012;-1.648;2023-05-08T13:19:13;100900.38;;;12.76;100.00
52693;BME280;68218;51.012;-1.648;2023-05-08T13:21:40;100895.25;;;12.79;100.00
52693;BME280;68218;51.012;-1.648;2023-05-08T13:24:06;100886.66;;;12.87;100.00
52693;BME280;68218;51.012;-1.648;2023-05-08T13:26:31;100886.19;;;13.01;100.00
52693;BME280;68218;51.012;-1.648;2023-05-08T13:28:57;100890.47;;;12.91;100.00